LFSL - Brive , Souillac,France,Corrèze Lot
Mise à jour: Mon, 23-Apr-2018 05:30 CEST
Clear
Clear
 Wind from varies
Vent: varies 4 km/h
Température: 16°C
Point de Rosée: 12°C
Humidité: 77%
Barometre: 1018 hPa
Visibilité: greater than 10 km
2018/04/23 03:30 LFSL 230330Z AUTO VRB02KT CAVOK 16/12 Q1018 BECMG FEW060TCU BKN120